Time;durP1;ratioP1;P1;durP2;ratioP2;P2;SDS_P1;SDS_P2;PMS_P1;PMS_P2;Temp;Humidity;BMP_temperature;BMP_pressure;BME280_temperature;BME280_humidity;BME280_pressure;Samples;Min_cycle;Max_cycle;Signal;HPM_P1;HPM_P2
2021/09/28 00:00:12;;;;;;;2.47;0.60;;;10.00;98.10;;;;;;2073101;28;20217;-66
2021/09/28 00:01:17;;;;;;;2.58;0.60;;;10.00;98.80;;;;;;2072855;28;20251;-66
2021/09/28 00:02:17;;;;;;;1.75;0.60;;;10.00;97.70;;;;;;2073268;28;20182;-66
2021/09/28 00:03:18;;;;;;;1.00;0.60;;;10.00;97.80;;;;;;2073145;28;20204;-66
2021/09/28 00:04:19;;;;;;;0.70;0.70;;;10.00;98.20;;;;;;2073373;28;20220;-66
2021/09/28 00:05:19;;;;;;;0.97;0.70;;;10.00;98.00;;;;;;2073045;28;20182;-66
2021/09/28 00:06:20;;;;;;;1.00;0.63;;;10.00;98.00;;;;;;2073400;28;20213;-66
2021/09/28 00:07:21;;;;;;;1.77;0.90;;;10.00;98.10;;;;;;2073063;28;20783;-67
2021/09/28 00:08:21;;;;;;;0.50;0.50;;;10.00;98.10;;;;;;2079532;28;20185;-66
2021/09/28 00:09:22;;;;;;;0.70;0.60;;;10.00;98.20;;;;;;2081361;28;20184;-66
2021/09/28 00:10:23;;;;;;;2.83;0.70;;;10.00;98.30;;;;;;2081325;28;20664;-66
2021/09/28 00:11:24;;;;;;;0.98;0.70;;;10.00;98.30;;;;;;2081259;28;20173;-66
2021/09/28 00:12:24;;;;;;;1.40;0.77;;;9.90;98.40;;;;;;2081498;28;20283;-66
2021/09/28 00:13:25;;;;;;;0.83;0.57;;;9.80;98.00;;;;;;2081290;28;20197;-67
2021/09/28 00:14:26;;;;;;;1.60;0.70;;;9.80;98.50;;;;;;2081403;28;20180;-65
2021/09/28 00:15:26;;;;;;;1.17;0.70;;;9.80;98.60;;;;;;2081213;28;20188;-67
2021/09/28 00:16:31;;;;;;;1.47;1.00;;;9.80;98.80;;;;;;2081410;28;20550;-67
2021/09/28 00:17:32;;;;;;;0.93;0.60;;;9.80;98.80;;;;;;2081331;28;20648;-66
2021/09/28 00:18:33;;;;;;;1.08;0.60;;;9.80;99.00;;;;;;2081387;28;20191;-67
2021/09/28 00:19:34;;;;;;;1.02;0.70;;;9.80;98.90;;;;;;2080704;28;20617;-66
2021/09/28 00:20:38;;;;;;;1.30;0.67;;;9.80;98.40;;;;;;2080715;28;20185;-67
2021/09/28 00:21:39;;;;;;;0.93;0.70;;;9.80;98.60;;;;;;2080940;28;20660;-67
2021/09/28 00:22:41;;;;;;;0.80;0.80;;;9.80;98.60;;;;;;2081381;28;20190;-65
2021/09/28 00:23:41;;;;;;;1.67;0.60;;;9.80;98.70;;;;;;2081332;28;20197;-65
2021/09/28 00:24:42;;;;;;;2.30;0.80;;;9.90;98.40;;;;;;2081424;28;20608;-65
2021/09/28 00:25:43;;;;;;;0.77;0.70;;;9.90;98.40;;;;;;2081253;28;20570;-67
2021/09/28 00:26:43;;;;;;;1.90;0.77;;;9.90;98.20;;;;;;2081190;28;20185;-66
2021/09/28 00:27:44;;;;;;;1.23;1.00;;;9.90;98.20;;;;;;2081259;28;20176;-66
2021/09/28 00:28:45;;;;;;;1.60;0.83;;;10.00;98.10;;;;;;2081428;28;20707;-68
2021/09/28 00:29:45;;;;;;;1.83;0.90;;;10.00;98.00;;;;;;2081445;28;20185;-65
2021/09/28 00:30:46;;;;;;;1.20;0.90;;;10.00;97.70;;;;;;2081357;28;20214;-65
2021/09/28 00:31:47;;;;;;;3.93;0.93;;;9.90;97.60;;;;;;2081006;28;20181;-67
2021/09/28 00:32:47;;;;;;;2.40;1.10;;;9.90;98.00;;;;;;2081508;28;20180;-65
2021/09/28 00:33:48;;;;;;;1.13;0.83;;;9.90;98.20;;;;;;2081313;28;20291;-66
2021/09/28 00:34:49;;;;;;;2.27;1.10;;;9.80;98.10;;;;;;2081387;28;20184;-66
2021/09/28 00:35:49;;;;;;;2.13;1.00;;;9.80;98.20;;;;;;2081238;28;20211;-66
2021/09/28 00:36:50;;;;;;;2.57;0.97;;;9.80;98.40;;;;;;2081380;28;20177;-66
2021/09/28 00:37:51;;;;;;;2.80;1.07;;;9.80;98.40;;;;;;2081422;28;20169;-65
2021/09/28 00:38:51;;;;;;;3.63;1.20;;;9.80;98.30;;;;;;2081349;28;20177;-66
2021/09/28 00:39:52;;;;;;;1.53;1.00;;;9.80;97.90;;;;;;2081236;28;20220;-65
2021/09/28 00:40:53;;;;;;;3.90;1.00;;;9.80;98.20;;;;;;2081338;28;20181;-67
2021/09/28 00:41:54;;;;;;;1.70;1.20;;;9.80;99.00;;;;;;2081119;28;20177;-65
2021/09/28 00:42:54;;;;;;;2.00;1.07;;;9.80;98.30;;;;;;2081219;28;20188;-65
2021/09/28 00:43:56;;;;;;;2.50;1.10;;;9.80;98.50;;;;;;2081313;28;20224;-67
2021/09/28 00:44:56;;;;;;;4.00;1.20;;;9.80;98.50;;;;;;2081314;28;20184;-65
2021/09/28 00:45:57;;;;;;;3.07;1.10;;;9.70;98.40;;;;;;2081414;28;20177;-66
2021/09/28 00:46:58;;;;;;;2.63;1.07;;;9.70;98.40;;;;;;2081264;28;20272;-65
2021/09/28 00:47:58;;;;;;;3.90;1.10;;;9.80;98.30;;;;;;2080601;28;20279;-65
2021/09/28 00:48:59;;;;;;;4.03;1.30;;;9.80;98.20;;;;;;2080762;28;20181;-65
2021/09/28 00:50:00;;;;;;;4.37;1.33;;;9.80;97.80;;;;;;2081298;28;20280;-65
2021/09/28 00:51:01;;;;;;;3.25;1.15;;;9.80;98.00;;;;;;2080384;28;20680;-66
2021/09/28 00:52:02;;;;;;;1.83;1.00;;;9.80;97.90;;;;;;2072485;28;20208;-66
2021/09/28 00:53:04;;;;;;;2.83;1.33;;;9.80;97.90;;;;;;2072432;28;20189;-65
2021/09/28 00:54:04;;;;;;;1.17;0.98;;;9.70;97.70;;;;;;2080576;28;20187;-65
2021/09/28 00:55:06;;;;;;;4.30;1.40;;;9.80;97.90;;;;;;2072429;28;20177;-65
2021/09/28 00:56:14;;;;;;;2.38;1.13;;;9.80;97.70;;;;;;2080692;28;20208;-65
2021/09/28 00:57:16;;;;;;;1.60;1.10;;;9.80;97.80;;;;;;2081227;28;20223;-66
2021/09/28 00:58:17;;;;;;;3.30;1.27;;;9.80;97.90;;;;;;2080624;28;20201;-65
2021/09/28 00:59:19;;;;;;;1.60;1.17;;;9.80;97.70;;;;;;2080552;28;20172;-66
2021/09/28 01:00:20;;;;;;;2.35;1.23;;;9.80;97.60;;;;;;2080629;28;20236;-65
2021/09/28 01:01:20;;;;;;;2.10;1.40;;;9.80;97.80;;;;;;2080343;28;20173;-65
2021/09/28 01:02:22;;;;;;;3.63;1.30;;;9.80;97.80;;;;;;2081388;28;20173;-65
2021/09/28 01:03:24;;;;;;;3.30;1.48;;;9.80;97.70;;;;;;2080625;28;20189;-65
2021/09/28 01:04:25;;;;;;;1.75;1.10;;;9.80;97.50;;;;;;2072536;28;20522;-65
2021/09/28 01:05:26;;;;;;;1.52;1.30;;;9.90;97.50;;;;;;2080598;28;20165;-66
2021/09/28 01:06:27;;;;;;;5.53;1.50;;;9.90;97.60;;;;;;2081223;28;20268;-65
2021/09/28 01:07:27;;;;;;;4.10;1.40;;;9.90;97.80;;;;;;2081182;28;20175;-66
2021/09/28 01:08:28;;;;;;;1.53;1.00;;;9.90;97.80;;;;;;2080585;28;20556;-66
2021/09/28 01:09:30;;;;;;;4.93;1.70;;;9.90;97.50;;;;;;2080398;28;20177;-66
2021/09/28 01:10:31;;;;;;;4.60;1.38;;;9.90;97.40;;;;;;2081184;28;20486;-65
2021/09/28 01:11:32;;;;;;;3.87;1.60;;;10.00;97.40;;;;;;2080976;28;20648;-67
2021/09/28 01:12:32;;;;;;;6.57;1.30;;;10.10;97.40;;;;;;2080491;28;20207;-66
2021/09/28 01:13:33;;;;;;;2.30;1.23;;;10.10;97.30;;;;;;2080476;28;20205;-65
2021/09/28 01:14:36;;;;;;;2.50;1.50;;;10.10;97.20;;;;;;2081143;28;20177;-66
2021/09/28 01:15:37;;;;;;;2.25;1.50;;;10.20;97.10;;;;;;2080447;28;20185;-66
2021/09/28 01:16:37;;;;;;;4.47;1.47;;;10.20;96.80;;;;;;2080591;28;20547;-66
2021/09/28 01:17:38;;;;;;;6.13;1.40;;;10.20;96.60;;;;;;2080575;28;20173;-66
2021/09/28 01:18:42;;;;;;;5.07;1.70;;;10.20;96.60;;;;;;2080618;28;20177;-66
2021/09/28 01:19:43;;;;;;;3.35;1.52;;;10.20;96.70;;;;;;2081121;28;20702;-66
2021/09/28 01:20:44;;;;;;;6.03;1.60;;;10.20;96.80;;;;;;2081181;28;20189;-65
2021/09/28 01:21:46;;;;;;;2.83;1.27;;;10.20;96.90;;;;;;2080927;28;20207;-65
2021/09/28 01:22:47;;;;;;;1.92;1.40;;;10.20;97.00;;;;;;2081180;28;20181;-65
2021/09/28 01:23:48;;;;;;;4.73;1.77;;;10.30;97.20;;;;;;2081006;28;20225;-65
2021/09/28 01:24:49;;;;;;;4.30;1.50;;;10.30;97.20;;;;;;2080578;28;20264;-66
2021/09/28 01:25:50;;;;;;;1.83;1.50;;;10.30;97.00;;;;;;2080448;28;20219;-66
2021/09/28 01:26:50;;;;;;;4.30;1.70;;;10.40;96.70;;;;;;2081184;28;20430;-67
2021/09/28 01:27:51;;;;;;;5.63;1.63;;;10.50;96.40;;;;;;2081122;28;20636;-65
2021/09/28 01:28:54;;;;;;;5.50;1.60;;;10.50;96.30;;;;;;2081125;28;20173;-65
2021/09/28 01:29:54;;;;;;;3.55;1.70;;;10.50;96.20;;;;;;2081055;28;20239;-66
2021/09/28 01:30:56;;;;;;;4.10;1.73;;;10.60;96.30;;;;;;2081094;28;20242;-65
2021/09/28 01:31:57;;;;;;;5.05;1.88;;;10.60;96.40;;;;;;2077485;28;20203;-66
2021/09/28 01:32:58;;;;;;;4.82;1.98;;;10.60;96.10;;;;;;2073525;28;20178;-66
2021/09/28 01:33:58;;;;;;;4.23;2.00;;;10.60;95.70;;;;;;2073964;28;20182;-67
2021/09/28 01:35:01;;;;;;;2.60;1.70;;;10.60;95.70;;;;;;2074445;28;20192;-66
2021/09/28 01:36:02;;;;;;;3.45;1.80;;;10.60;95.80;;;;;;2074402;28;20651;-66
2021/09/28 01:37:03;;;;;;;1.97;1.57;;;10.60;95.90;;;;;;2074402;28;20185;-67
2021/09/28 01:38:04;;;;;;;6.77;2.07;;;10.60;96.00;;;;;;2074453;28;20521;-66
2021/09/28 01:39:05;;;;;;;4.28;1.90;;;10.60;96.00;;;;;;2074370;28;20432;-66
2021/09/28 01:40:07;;;;;;;5.73;2.33;;;10.70;96.00;;;;;;2074389;28;20189;-65
2021/09/28 01:41:07;;;;;;;3.35;2.15;;;10.70;95.70;;;;;;2074066;28;20436;-65
2021/09/28 01:42:08;;;;;;;6.20;2.10;;;10.60;95.80;;;;;;2074394;28;20264;-65
2021/09/28 01:43:14;;;;;;;3.33;2.30;;;10.60;95.90;;;;;;2074315;28;20178;-66
2021/09/28 01:44:20;;;;;;;8.02;2.78;;;10.60;96.10;;;;;;2073823;28;20166;-66
2021/09/28 01:45:21;;;;;;;6.43;3.00;;;10.60;95.60;;;;;;2073926;28;20170;-66
2021/09/28 01:46:21;;;;;;;4.10;2.70;;;10.60;95.80;;;;;;2074427;28;20525;-66
2021/09/28 01:47:22;;;;;;;9.70;2.87;;;10.50;96.10;;;;;;2074226;28;20205;-66
2021/09/28 01:48:52;;;;;;;4.20;2.47;;;10.50;96.30;;;;;;2074513;28;20569;-66
2021/09/28 01:49:53;;;;;;;3.50;2.50;;;10.50;96.40;;;;;;2073787;28;20186;-68
2021/09/28 01:50:53;;;;;;;7.27;2.97;;;10.50;96.40;;;;;;2073633;28;20204;-66
2021/09/28 01:51:54;;;;;;;8.17;2.77;;;10.50;96.20;;;;;;2074241;28;20178;-65
2021/09/28 01:52:55;;;;;;;4.87;2.80;;;10.50;95.90;;;;;;2074265;28;20273;-66
2021/09/28 01:53:56;;;;;;;2.97;2.23;;;10.50;95.90;;;;;;2074192;28;20206;-65
2021/09/28 01:54:56;;;;;;;3.60;2.60;;;10.50;95.90;;;;;;2074352;28;20272;-65
2021/09/28 01:55:57;;;;;;;7.33;2.60;;;10.50;96.00;;;;;;2074259;28;20240;-66
2021/09/28 01:56:58;;;;;;;6.87;2.90;;;10.50;95.80;;;;;;2074336;28;20178;-66
2021/09/28 01:57:59;;;;;;;5.57;2.50;;;10.50;95.70;;;;;;2074340;28;20185;-65
2021/09/28 01:59:03;;;;;;;3.33;2.50;;;10.60;95.70;;;;;;2074241;28;20656;-65
2021/09/28 02:00:05;;;;;;;6.13;2.70;;;10.60;95.60;;;;;;2074324;28;20188;-65
2021/09/28 02:01:05;;;;;;;5.53;2.90;;;10.50;95.80;;;;;;2074034;28;20530;-66
2021/09/28 02:02:06;;;;;;;4.43;2.43;;;10.50;95.40;;;;;;2074286;28;20196;-65
2021/09/28 02:03:07;;;;;;;5.23;2.83;;;10.60;95.50;;;;;;2073643;28;20190;-66
2021/09/28 02:04:08;;;;;;;7.50;2.90;;;10.50;95.40;;;;;;2073532;28;20185;-66
2021/09/28 02:05:09;;;;;;;4.27;3.10;;;10.50;95.00;;;;;;2074278;28;20194;-66
2021/09/28 02:06:13;;;;;;;3.65;2.72;;;10.50;95.00;;;;;;2074130;28;20211;-66
2021/09/28 02:07:13;;;;;;;3.47;2.58;;;10.50;94.90;;;;;;2073589;28;20181;-66
2021/09/28 02:08:14;;;;;;;6.53;3.27;;;10.50;95.00;;;;;;2073584;28;20178;-66
2021/09/28 02:09:15;;;;;;;7.63;3.00;;;10.50;95.20;;;;;;2074159;28;20807;-66
2021/09/28 02:10:17;;;;;;;4.55;2.75;;;10.60;95.50;;;;;;2074125;28;20181;-66
2021/09/28 02:11:18;;;;;;;6.78;3.20;;;10.60;95.60;;;;;;2065196;28;20182;-68
2021/09/28 02:12:18;;;;;;;6.55;2.85;;;10.60;95.60;;;;;;2065425;28;20201;-65
2021/09/28 02:13:19;;;;;;;4.70;2.60;;;10.60;96.10;;;;;;2081822;28;20200;-65
2021/09/28 02:14:26;;;;;;;4.33;2.90;;;10.50;96.20;;;;;;2082173;28;20177;-65
2021/09/28 02:15:26;;;;;;;6.47;3.42;;;10.50;95.40;;;;;;2082332;28;20223;-66
2021/09/28 02:16:28;;;;;;;9.43;3.17;;;10.50;95.30;;;;;;2081494;28;20699;-67
2021/09/28 02:17:28;;;;;;;4.85;2.90;;;10.50;95.70;;;;;;2073553;28;20173;-66
2021/09/28 02:18:29;;;;;;;11.10;3.50;;;10.50;95.50;;;;;;2081690;28;20177;-65
2021/09/28 02:19:30;;;;;;;5.03;3.20;;;10.50;95.50;;;;;;2081756;28;20176;-66
2021/09/28 02:20:31;;;;;;;5.63;2.73;;;10.50;95.50;;;;;;2081598;28;20178;-66
2021/09/28 02:21:31;;;;;;;4.73;3.40;;;10.60;95.40;;;;;;2082047;28;20181;-66
2021/09/28 02:22:32;;;;;;;8.83;3.00;;;10.60;95.40;;;;;;2081599;28;20173;-66
2021/09/28 02:23:33;;;;;;;7.40;3.00;;;10.50;95.40;;;;;;2081736;28;20212;-66
2021/09/28 02:24:33;;;;;;;6.30;2.73;;;10.50;95.20;;;;;;2082210;28;20595;-65
2021/09/28 02:25:34;;;;;;;4.60;2.83;;;10.40;95.30;;;;;;2082262;28;20263;-66
2021/09/28 02:26:35;;;;;;;4.33;2.93;;;10.40;95.70;;;;;;2082208;28;20201;-65
2021/09/28 02:27:36;;;;;;;7.07;3.10;;;10.40;95.70;;;;;;2080141;28;20192;-66
2021/09/28 02:28:37;;;;;;;4.43;3.10;;;10.40;95.70;;;;;;2081736;28;20184;-67
2021/09/28 02:29:37;;;;;;;4.70;3.27;;;10.50;95.80;;;;;;2081560;28;20666;-65
2021/09/28 02:30:38;;;;;;;6.37;3.10;;;10.50;95.70;;;;;;2081414;28;20672;-65
2021/09/28 02:33:55;;;;;;;5.07;2.47;;;10.50;95.80;;;;;;2079441;28;20580;-66
2021/09/28 02:34:55;;;;;;;7.83;2.97;;;10.50;95.60;;;;;;2082202;28;20189;-66
2021/09/28 02:35:56;;;;;;;7.87;2.93;;;10.50;95.60;;;;;;2081966;28;20739;-66
2021/09/28 02:36:57;;;;;;;5.80;2.97;;;10.50;95.50;;;;;;2082295;28;20218;-65
2021/09/28 02:37:59;;;;;;;5.73;3.07;;;10.50;95.70;;;;;;2082177;28;20795;-65
2021/09/28 02:39:01;;;;;;;4.60;2.97;;;10.50;95.40;;;;;;2081603;28;20549;-65
2021/09/28 02:40:03;;;;;;;7.95;2.75;;;10.50;95.10;;;;;;2081618;28;20181;-65
2021/09/28 02:41:04;;;;;;;6.18;2.72;;;10.50;95.00;;;;;;2081989;28;20280;-66
2021/09/28 02:42:06;;;;;;;6.47;3.30;;;10.50;95.20;;;;;;2082066;28;20177;-65
2021/09/28 02:43:08;;;;;;;4.10;2.85;;;10.50;95.50;;;;;;2082116;28;20636;-65
2021/09/28 02:44:09;;;;;;;7.18;3.28;;;10.50;95.70;;;;;;2080346;28;20184;-65
2021/09/28 02:45:10;;;;;;;6.03;3.23;;;10.50;95.90;;;;;;2081549;28;20717;-66
2021/09/28 02:46:11;;;;;;;6.43;3.00;;;10.50;96.10;;;;;;2082058;28;20546;-65
2021/09/28 02:47:12;;;;;;;4.27;3.00;;;10.50;96.10;;;;;;2082168;28;20735;-65
2021/09/28 02:48:12;;;;;;;6.13;2.83;;;10.60;96.00;;;;;;2082088;28;20180;-67
2021/09/28 02:49:14;;;;;;;5.83;3.00;;;10.60;96.00;;;;;;2082112;28;20256;-66
2021/09/28 02:50:15;;;;;;;5.38;2.75;;;10.60;96.00;;;;;;2082078;28;20177;-67
2021/09/28 02:51:15;;;;;;;8.25;2.92;;;10.70;96.10;;;;;;2081756;28;20189;-65
2021/09/28 02:52:16;;;;;;;7.77;2.97;;;10.70;96.60;;;;;;2081961;28;20627;-67
2021/09/28 02:53:17;;;;;;;9.03;3.27;;;10.70;95.80;;;;;;2082057;28;20260;-66
2021/09/28 02:54:18;;;;;;;8.70;2.83;;;10.70;95.60;;;;;;2082067;28;20652;-65
2021/09/28 02:55:18;;;;;;;6.37;3.20;;;10.70;95.50;;;;;;2082149;28;20176;-66
2021/09/28 02:56:19;;;;;;;5.77;2.70;;;10.70;95.50;;;;;;2081954;28;20291;-65
2021/09/28 02:57:20;;;;;;;5.93;2.80;;;10.70;95.60;;;;;;2081994;28;20201;-65
2021/09/28 02:58:20;;;;;;;9.37;3.17;;;10.60;95.50;;;;;;2081989;28;20230;-66
2021/09/28 02:59:21;;;;;;;8.30;3.17;;;10.60;95.60;;;;;;2081999;28;20170;-66
2021/09/28 03:00:22;;;;;;;7.53;3.10;;;10.70;95.60;;;;;;2082003;28;20402;-65
2021/09/28 03:01:23;;;;;;;7.77;2.87;;;10.70;95.50;;;;;;2081841;28;20259;-65
2021/09/28 03:02:23;;;;;;;5.13;3.10;;;10.70;95.40;;;;;;2081915;28;20252;-66
2021/09/28 03:03:24;;;;;;;5.87;3.10;;;10.70;95.50;;;;;;2081987;28;20251;-65
2021/09/28 03:04:25;;;;;;;7.40;2.80;;;10.60;95.70;;;;;;2081970;28;20255;-66
2021/09/28 03:05:25;;;;;;;5.90;2.40;;;10.70;95.70;;;;;;2081914;28;20208;-66
2021/09/28 03:06:26;;;;;;;3.80;2.80;;;10.70;95.10;;;;;;2082011;28;20648;-65
2021/09/28 03:07:27;;;;;;;7.33;2.90;;;10.70;95.20;;;;;;2081811;28;20234;-66
2021/09/28 03:08:28;;;;;;;7.83;2.67;;;10.70;95.20;;;;;;2081881;28;20192;-65
2021/09/28 03:09:28;;;;;;;7.13;2.90;;;10.70;95.00;;;;;;2081827;28;20292;-67
2021/09/28 03:10:29;;;;;;;4.73;2.90;;;10.60;95.30;;;;;;2081329;28;20459;-65
2021/09/28 03:11:30;;;;;;;5.07;2.70;;;10.60;95.60;;;;;;2081043;28;20185;-65
2021/09/28 03:12:32;;;;;;;4.30;2.70;;;10.60;95.10;;;;;;2081843;28;20189;-66
2021/09/28 03:13:32;;;;;;;6.10;2.90;;;10.50;94.80;;;;;;2081158;28;20208;-65
2021/09/28 03:14:33;;;;;;;4.87;2.53;;;10.50;95.10;;;;;;2081353;28;20648;-66
2021/09/28 03:15:34;;;;;;;3.93;2.57;;;10.40;95.30;;;;;;2081876;28;20185;-65
2021/09/28 03:16:34;;;;;;;7.57;2.87;;;10.40;95.60;;;;;;2082077;28;20290;-65
2021/09/28 03:17:35;;;;;;;4.33;2.67;;;10.30;96.00;;;;;;2081860;28;20239;-66
2021/09/28 03:18:36;;;;;;;5.50;2.80;;;10.30;96.20;;;;;;2081856;28;20227;-66
2021/09/28 03:19:37;;;;;;;6.17;2.47;;;10.40;96.20;;;;;;2081847;28;20181;-66
2021/09/28 03:20:37;;;;;;;4.73;2.63;;;10.40;96.20;;;;;;2081887;28;20199;-66
2021/09/28 03:21:38;;;;;;;7.13;2.50;;;10.40;96.10;;;;;;2081517;28;20211;-66
2021/09/28 03:22:39;;;;;;;6.47;2.60;;;10.50;96.00;;;;;;2081870;28;20176;-66
2021/09/28 03:23:40;;;;;;;4.10;2.70;;;10.50;95.90;;;;;;2081146;28;20319;-66
2021/09/28 03:24:40;;;;;;;3.63;2.50;;;10.50;95.90;;;;;;2081167;28;20307;-65
2021/09/28 03:25:41;;;;;;;4.93;2.60;;;10.50;96.00;;;;;;2081792;28;20185;-67
2021/09/28 03:26:42;;;;;;;5.23;2.50;;;10.60;95.80;;;;;;2081799;28;20712;-66
2021/09/28 03:27:42;;;;;;;5.20;2.57;;;10.50;95.80;;;;;;2081147;28;20291;-65
2021/09/28 03:28:43;;;;;;;6.47;2.67;;;10.50;95.90;;;;;;2081332;28;20234;-67
2021/09/28 03:29:44;;;;;;;3.37;2.43;;;10.50;95.90;;;;;;2081666;28;20177;-67
2021/09/28 03:30:44;;;;;;;5.43;2.60;;;10.60;95.90;;;;;;2081791;28;20263;-65
2021/09/28 03:31:45;;;;;;;4.13;2.53;;;10.60;96.00;;;;;;2081640;28;20537;-67
2021/09/28 03:32:46;;;;;;;4.20;2.20;;;10.60;95.90;;;;;;2081779;28;20634;-65
2021/09/28 03:33:47;;;;;;;4.90;2.43;;;10.60;95.90;;;;;;2081757;28;20201;-65
2021/09/28 03:34:47;;;;;;;3.93;2.50;;;10.60;95.70;;;;;;2081738;28;20546;-67
2021/09/28 03:35:48;;;;;;;6.10;2.47;;;10.70;95.40;;;;;;2081613;28;20183;-65
2021/09/28 03:36:49;;;;;;;3.03;2.40;;;10.70;95.10;;;;;;2081706;28;20173;-66
2021/09/28 03:37:52;;;;;;;5.43;2.93;;;10.70;94.80;;;;;;2081825;28;20272;-65
2021/09/28 03:38:53;;;;;;;4.90;2.30;;;10.70;95.00;;;;;;2078725;28;20181;-65
2021/09/28 03:39:54;;;;;;;4.83;2.17;;;10.70;95.00;;;;;;2081694;28;20231;-66
2021/09/28 03:40:54;;;;;;;2.90;2.47;;;10.80;94.60;;;;;;2081692;28;20200;-65
2021/09/28 03:41:55;;;;;;;4.07;2.43;;;10.70;94.30;;;;;;2081661;28;20439;-66
2021/09/28 03:42:57;;;;;;;6.20;2.60;;;10.80;94.20;;;;;;2081949;28;20210;-66
2021/09/28 03:43:58;;;;;;;4.53;2.45;;;10.70;94.40;;;;;;2081015;28;20662;-66
2021/09/28 03:44:59;;;;;;;6.00;2.50;;;10.70;94.60;;;;;;2081046;28;20184;-65
2021/09/28 03:45:59;;;;;;;6.90;2.47;;;10.70;94.60;;;;;;2081608;28;20181;-65
2021/09/28 03:47:00;;;;;;;5.17;2.53;;;10.70;94.20;;;;;;2081645;28;20533;-65
2021/09/28 03:48:01;;;;;;;3.73;2.47;;;10.60;94.30;;;;;;2081727;28;20263;-66
2021/09/28 03:49:02;;;;;;;4.77;2.47;;;10.60;94.70;;;;;;2081032;28;20664;-66
2021/09/28 03:50:04;;;;;;;5.88;2.60;;;10.50;94.50;;;;;;2081068;28;20272;-65
2021/09/28 03:51:06;;;;;;;3.15;2.20;;;10.40;94.60;;;;;;2080553;28;20197;-65
2021/09/28 03:52:07;;;;;;;3.55;2.45;;;10.40;94.90;;;;;;2081079;28;20670;-65
2021/09/28 03:53:08;;;;;;;4.97;2.40;;;10.40;94.80;;;;;;2081527;28;20177;-66
2021/09/28 03:54:09;;;;;;;6.07;2.93;;;10.30;95.10;;;;;;2081641;28;20552;-65
2021/09/28 03:55:10;;;;;;;3.43;2.60;;;10.30;95.30;;;;;;2081212;28;20267;-65
2021/09/28 03:56:11;;;;;;;6.55;2.67;;;10.40;95.50;;;;;;2081462;28;20282;-66
2021/09/28 03:57:11;;;;;;;8.97;2.50;;;10.40;95.50;;;;;;2081592;28;20173;-65
2021/09/28 03:58:15;;;;;;;5.20;2.83;;;10.40;94.90;;;;;;2081658;28;20181;-66
2021/09/28 03:59:16;;;;;;;5.85;2.88;;;10.40;94.90;;;;;;2081578;28;20165;-65
2021/09/28 04:00:20;;;;;;;6.57;2.70;;;10.40;95.20;;;;;;2081653;28;20304;-66
2021/09/28 04:01:20;;;;;;;4.18;2.60;;;10.40;95.40;;;;;;2081175;28;20583;-66
2021/09/28 04:02:21;;;;;;;7.70;2.90;;;10.40;95.40;;;;;;2081579;28;20275;-66
2021/09/28 04:03:22;;;;;;;5.23;2.43;;;10.40;94.90;;;;;;2081383;28;20193;-67
2021/09/28 04:04:23;;;;;;;4.50;2.63;;;10.40;95.00;;;;;;2081532;28;20165;-66
2021/09/28 04:05:24;;;;;;;4.37;2.53;;;10.40;95.20;;;;;;2081483;28;20651;-66
2021/09/28 04:06:24;;;;;;;4.27;2.50;;;10.40;95.20;;;;;;2081345;28;20185;-66
2021/09/28 04:07:25;;;;;;;5.33;2.50;;;10.40;94.70;;;;;;2081429;28;20268;-65
2021/09/28 04:08:26;;;;;;;3.87;2.27;;;10.40;94.60;;;;;;2081531;28;20176;-67
2021/09/28 04:09:26;;;;;;;7.70;2.50;;;10.50;94.70;;;;;;2081475;28;20173;-67
2021/09/28 04:10:27;;;;;;;5.00;2.40;;;10.50;94.80;;;;;;2081564;28;20622;-66
2021/09/28 04:11:28;;;;;;;12.60;2.57;;;10.50;94.60;;;;;;2081480;28;20191;-65
2021/09/28 04:12:28;;;;;;;10.07;2.50;;;10.60;94.90;;;;;;2081634;28;20272;-67
2021/09/28 04:13:29;;;;;;;3.23;2.13;;;10.60;94.30;;;;;;2080856;28;20216;-66
2021/09/28 04:14:30;;;;;;;3.60;1.73;;;10.60;94.20;;;;;;2081224;28;20197;-65
2021/09/28 04:15:38;;;;;;;3.97;2.10;;;10.60;94.80;;;;;;2081702;28;20184;-66
2021/09/28 04:16:38;;;;;;;2.70;2.08;;;10.60;94.40;;;;;;2081739;28;20172;-65
2021/09/28 04:17:39;;;;;;;5.37;2.40;;;10.60;94.20;;;;;;2081699;28;20557;-65
2021/09/28 04:18:40;;;;;;;4.20;2.10;;;10.60;93.60;;;;;;2081830;28;20177;-65
2021/09/28 04:19:40;;;;;;;5.37;2.10;;;10.60;94.10;;;;;;2081597;28;20181;-67
2021/09/28 04:20:43;;;;;;;6.47;2.10;;;10.50;94.00;;;;;;2081494;28;20522;-66
2021/09/28 04:21:44;;;;;;;4.57;2.28;;;10.50;94.20;;;;;;2081220;28;20701;-65
2021/09/28 04:22:45;;;;;;;4.40;2.37;;;10.40;94.40;;;;;;2081705;28;20226;-65
2021/09/28 04:23:49;;;;;;;4.38;2.13;;;10.40;94.60;;;;;;2081702;28;20846;-65
2021/09/28 04:24:51;;;;;;;8.13;2.38;;;10.30;94.50;;;;;;2081651;28;20231;-65
2021/09/28 04:25:52;;;;;;;3.72;2.10;;;10.30;94.60;;;;;;2081606;28;20184;-65
2021/09/28 04:26:53;;;;;;;3.37;2.30;;;10.20;94.90;;;;;;2081598;28;20273;-66
2021/09/28 04:27:53;;;;;;;4.50;2.13;;;10.10;95.00;;;;;;2081418;28;20416;-65
2021/09/28 04:28:54;;;;;;;4.13;2.37;;;10.10;95.00;;;;;;2081484;28;20592;-65
2021/09/28 04:29:55;;;;;;;5.30;2.60;;;10.00;95.20;;;;;;2081461;28;20307;-66
2021/09/28 04:30:56;;;;;;;2.97;1.97;;;9.90;95.40;;;;;;2081816;28;20177;-66
2021/09/28 04:31:56;;;;;;;5.90;2.20;;;9.80;95.60;;;;;;2081344;28;20600;-65
2021/09/28 04:32:57;;;;;;;5.13;2.20;;;9.80;95.70;;;;;;2081588;28;20230;-67
2021/09/28 04:33:58;;;;;;;4.20;2.20;;;9.70;95.80;;;;;;2081453;28;20234;-65
2021/09/28 04:34:59;;;;;;;5.07;2.13;;;9.70;96.10;;;;;;2081326;28;20764;-65
2021/09/28 04:35:59;;;;;;;4.43;2.20;;;9.60;96.10;;;;;;2081443;28;20212;-65
2021/09/28 04:37:00;;;;;;;4.20;2.13;;;9.60;96.00;;;;;;2081331;28;20181;-65
2021/09/28 04:38:01;;;;;;;7.57;2.80;;;9.60;96.00;;;;;;2081515;28;20172;-65
2021/09/28 04:39:02;;;;;;;2.80;2.50;;;9.50;96.30;;;;;;2081383;28;20640;-65
2021/09/28 04:40:03;;;;;;;6.83;2.53;;;9.50;96.40;;;;;;2081520;28;20184;-65
2021/09/28 04:41:04;;;;;;;6.63;2.72;;;9.40;96.50;;;;;;2081124;28;20180;-67
2021/09/28 04:42:05;;;;;;;11.52;3.15;;;9.40;96.60;;;;;;2081416;28;20265;-65
2021/09/28 04:43:06;;;;;;;6.25;2.63;;;9.40;96.70;;;;;;2081335;28;20183;-64
2021/09/28 04:44:07;;;;;;;3.87;2.60;;;9.30;96.90;;;;;;2081551;28;20682;-65
2021/09/28 04:45:09;;;;;;;6.23;2.80;;;9.30;97.30;;;;;;2081417;28;20227;-66
2021/09/28 04:46:10;;;;;;;6.50;2.90;;;9.20;97.30;;;;;;2080915;28;20858;-65
2021/09/28 04:47:10;;;;;;;4.70;2.60;;;9.20;97.50;;;;;;2080878;28;20200;-65
2021/09/28 04:48:11;;;;;;;6.80;2.83;;;9.20;97.60;;;;;;2081554;28;20192;-65
2021/09/28 04:49:12;;;;;;;5.97;2.83;;;9.20;97.60;;;;;;2081362;28;20191;-65
2021/09/28 04:50:12;;;;;;;4.87;2.20;;;9.20;97.70;;;;;;2081536;28;20188;-66
2021/09/28 04:51:13;;;;;;;5.53;2.40;;;9.20;97.70;;;;;;2081069;28;20293;-66
2021/09/28 04:52:14;;;;;;;5.53;2.77;;;9.20;97.80;;;;;;2081538;28;20213;-65
2021/09/28 04:53:14;;;;;;;5.33;2.80;;;9.20;97.70;;;;;;2081411;28;20208;-66
2021/09/28 04:54:15;;;;;;;4.93;2.33;;;9.20;97.70;;;;;;2081695;28;20593;-65
2021/09/28 04:55:16;;;;;;;5.40;2.67;;;9.30;97.60;;;;;;2081396;28;20173;-65
2021/09/28 04:56:17;;;;;;;4.13;2.57;;;9.20;97.40;;;;;;2080759;28;20208;-65
2021/09/28 04:57:18;;;;;;;4.63;2.60;;;9.20;97.30;;;;;;2080854;28;20181;-65
2021/09/28 04:58:18;;;;;;;5.50;2.22;;;9.20;97.30;;;;;;2081421;28;20176;-65
2021/09/28 04:59:19;;;;;;;8.47;2.97;;;9.20;97.00;;;;;;2081335;28;20208;-65
2021/09/28 05:00:20;;;;;;;2.47;2.27;;;9.10;96.90;;;;;;2081532;28;20251;-65
2021/09/28 05:01:20;;;;;;;6.40;2.43;;;9.10;96.70;;;;;;2080420;28;20220;-66
2021/09/28 05:02:21;;;;;;;5.47;2.73;;;9.10;96.60;;;;;;2080687;28;20172;-65
2021/09/28 05:03:22;;;;;;;5.20;2.53;;;9.10;96.70;;;;;;2081118;28;20219;-65
2021/09/28 05:04:22;;;;;;;5.03;2.70;;;9.00;96.80;;;;;;2081193;28;20175;-65
2021/09/28 05:05:23;;;;;;;3.27;2.40;;;8.90;96.80;;;;;;2081160;28;20175;-65
2021/09/28 05:06:24;;;;;;;3.20;2.30;;;8.80;96.90;;;;;;2081199;28;20660;-65
2021/09/28 05:07:24;;;;;;;8.50;2.87;;;8.80;96.90;;;;;;2081554;28;20550;-66
2021/09/28 05:08:25;;;;;;;5.40;2.73;;;8.80;97.20;;;;;;2082938;28;20227;-65
2021/09/28 05:09:27;;;;;;;3.30;2.50;;;8.70;97.40;;;;;;2082900;28;20179;-67
2021/09/28 05:10:28;;;;;;;4.15;2.45;;;8.60;97.30;;;;;;2082849;28;20186;-67
2021/09/28 05:11:28;;;;;;;4.63;2.87;;;8.60;97.40;;;;;;2081970;28;20180;-65
2021/09/28 05:12:29;;;;;;;3.50;2.47;;;8.60;97.50;;;;;;2082138;28;20676;-65
2021/09/28 05:13:30;;;;;;;5.80;2.60;;;8.50;97.70;;;;;;2082828;28;20289;-66
2021/09/28 05:14:31;;;;;;;6.10;2.70;;;8.50;97.70;;;;;;2082780;28;20197;-65
2021/09/28 05:15:32;;;;;;;6.30;2.63;;;8.50;97.70;;;;;;2082811;28;20208;-66
2021/09/28 05:16:33;;;;;;;8.45;2.95;;;8.50;97.70;;;;;;2082648;28;20214;-65
2021/09/28 05:17:35;;;;;;;6.33;2.87;;;8.50;98.00;;;;;;2082882;28;20181;-65
2021/09/28 05:18:36;;;;;;;4.10;2.70;;;8.40;98.20;;;;;;2082749;28;20217;-65
2021/09/28 05:19:36;;;;;;;4.47;2.33;;;8.50;98.30;;;;;;2082822;28;20180;-66
2021/09/28 05:20:37;;;;;;;4.17;2.30;;;8.40;98.30;;;;;;2082796;28;20178;-65
2021/09/28 05:21:38;;;;;;;5.10;2.33;;;8.40;98.30;;;;;;2082501;28;20180;-66